sensor_id;sensor_type;location;lat;lon;timestamp;P1;durP1;ratioP1;P2;durP2;ratioP2
34098;SDS011;20374;49.474;10.944;2023-05-07T00:01:56;3.88;;;3.67;;
34098;SDS011;20374;49.474;10.944;2023-05-07T00:04:22;4.50;;;4.30;;
34098;SDS011;20374;49.474;10.944;2023-05-07T00:06:48;3.75;;;3.55;;
34098;SDS011;20374;49.474;10.944;2023-05-07T00:09:14;3.42;;;3.22;;
34098;SDS011;20374;49.474;10.944;2023-05-07T00:11:40;3.97;;;3.77;;
34098;SDS011;20374;49.474;10.944;2023-05-07T00:14:06;4.20;;;4.00;;
34098;SDS011;20374;49.474;10.944;2023-05-07T00:16:31;3.88;;;3.67;;
34098;SDS011;20374;49.474;10.944;2023-05-07T00:18:57;4.73;;;4.43;;
34098;SDS011;20374;49.474;10.944;2023-05-07T00:21:23;3.40;;;3.20;;
34098;SDS011;20374;49.474;10.944;2023-05-07T00:23:52;3.90;;;3.70;;
34098;SDS011;20374;49.474;10.944;2023-05-07T00:26:19;3.80;;;3.60;;
34098;SDS011;20374;49.474;10.944;2023-05-07T00:28:48;3.90;;;3.70;;
34098;SDS011;20374;49.474;10.944;2023-05-07T00:31:14;4.07;;;3.88;;
34098;SDS011;20374;49.474;10.944;2023-05-07T00:33:40;3.20;;;3.00;;
34098;SDS011;20374;49.474;10.944;2023-05-07T00:36:06;3.77;;;3.57;;
34098;SDS011;20374;49.474;10.944;2023-05-07T00:38:32;3.67;;;3.47;;
34098;SDS011;20374;49.474;10.944;2023-05-07T00:40:58;3.70;;;3.50;;
34098;SDS011;20374;49.474;10.944;2023-05-07T00:43:24;3.60;;;3.40;;
34098;SDS011;20374;49.474;10.944;2023-05-07T00:45:50;4.20;;;4.00;;
34098;SDS011;20374;49.474;10.944;2023-05-07T00:48:16;3.47;;;3.28;;
34098;SDS011;20374;49.474;10.944;2023-05-07T00:50:43;4.47;;;4.28;;
34098;SDS011;20374;49.474;10.944;2023-05-07T00:53:09;4.10;;;3.90;;
34098;SDS011;20374;49.474;10.944;2023-05-07T00:55:35;3.65;;;3.45;;
34098;SDS011;20374;49.474;10.944;2023-05-07T00:58:02;4.23;;;4.03;;
34098;SDS011;20374;49.474;10.944;2023-05-07T01:00:28;3.72;;;3.53;;
34098;SDS011;20374;49.474;10.944;2023-05-07T01:02:54;4.07;;;3.88;;
34098;SDS011;20374;49.474;10.944;2023-05-07T01:05:20;4.00;;;3.80;;
34098;SDS011;20374;49.474;10.944;2023-05-07T01:07:48;4.30;;;4.10;;
34098;SDS011;20374;49.474;10.944;2023-05-07T01:10:17;4.03;;;3.83;;
34098;SDS011;20374;49.474;10.944;2023-05-07T01:12:44;3.63;;;3.42;;
34098;SDS011;20374;49.474;10.944;2023-05-07T01:15:12;4.30;;;4.10;;
34098;SDS011;20374;49.474;10.944;2023-05-07T01:17:38;3.70;;;3.50;;
34098;SDS011;20374;49.474;10.944;2023-05-07T01:20:09;4.00;;;3.80;;
34098;SDS011;20374;49.474;10.944;2023-05-07T01:22:37;6.47;;;5.95;;
34098;SDS011;20374;49.474;10.944;2023-05-07T01:25:04;4.57;;;4.38;;
34098;SDS011;20374;49.474;10.944;2023-05-07T01:27:32;4.10;;;3.90;;
34098;SDS011;20374;49.474;10.944;2023-05-07T01:29:59;3.75;;;3.55;;
34098;SDS011;20374;49.474;10.944;2023-05-07T01:32:31;4.17;;;3.97;;
34098;SDS011;20374;49.474;10.944;2023-05-07T01:35:05;3.30;;;3.10;;
34098;SDS011;20374;49.474;10.944;2023-05-07T01:37:35;3.80;;;3.60;;
34098;SDS011;20374;49.474;10.944;2023-05-07T01:40:01;3.90;;;3.70;;
34098;SDS011;20374;49.474;10.944;2023-05-07T01:42:28;3.60;;;3.40;;
34098;SDS011;20374;49.474;10.944;2023-05-07T01:44:54;3.90;;;3.70;;
34098;SDS011;20374;49.474;10.944;2023-05-07T01:47:21;3.33;;;3.13;;
34098;SDS011;20374;49.474;10.944;2023-05-07T01:49:48;2.90;;;2.70;;
34098;SDS011;20374;49.474;10.944;2023-05-07T01:52:14;3.80;;;3.60;;
34098;SDS011;20374;49.474;10.944;2023-05-07T01:54:40;3.80;;;3.60;;
34098;SDS011;20374;49.474;10.944;2023-05-07T01:57:06;3.90;;;3.70;;
34098;SDS011;20374;49.474;10.944;2023-05-07T01:59:32;3.55;;;3.35;;
34098;SDS011;20374;49.474;10.944;2023-05-07T02:01:58;4.28;;;4.07;;
34098;SDS011;20374;49.474;10.944;2023-05-07T02:04:24;3.78;;;3.58;;
34098;SDS011;20374;49.474;10.944;2023-05-07T02:06:51;4.07;;;3.88;;
34098;SDS011;20374;49.474;10.944;2023-05-07T02:09:18;3.80;;;3.60;;
34098;SDS011;20374;49.474;10.944;2023-05-07T02:11:47;3.60;;;3.40;;
34098;SDS011;20374;49.474;10.944;2023-05-07T02:14:13;3.90;;;3.70;;
34098;SDS011;20374;49.474;10.944;2023-05-07T02:16:39;3.83;;;3.63;;
34098;SDS011;20374;49.474;10.944;2023-05-07T02:19:05;4.20;;;4.00;;
34098;SDS011;20374;49.474;10.944;2023-05-07T02:21:31;2.97;;;2.78;;
34098;SDS011;20374;49.474;10.944;2023-05-07T02:23:57;3.78;;;3.58;;
34098;SDS011;20374;49.474;10.944;2023-05-07T02:26:23;4.40;;;4.20;;
34098;SDS011;20374;49.474;10.944;2023-05-07T02:28:49;3.38;;;3.10;;
34098;SDS011;20374;49.474;10.944;2023-05-07T02:31:17;3.42;;;3.22;;
34098;SDS011;20374;49.474;10.944;2023-05-07T02:33:42;3.70;;;3.50;;
34098;SDS011;20374;49.474;10.944;2023-05-07T02:36:09;3.85;;;3.65;;
34098;SDS011;20374;49.474;10.944;2023-05-07T02:38:42;3.75;;;3.55;;
34098;SDS011;20374;49.474;10.944;2023-05-07T02:41:09;4.00;;;3.80;;
34098;SDS011;20374;49.474;10.944;2023-05-07T02:43:35;3.47;;;3.28;;
34098;SDS011;20374;49.474;10.944;2023-05-07T02:46:02;3.70;;;3.50;;
34098;SDS011;20374;49.474;10.944;2023-05-07T02:48:35;3.63;;;3.43;;
34098;SDS011;20374;49.474;10.944;2023-05-07T02:51:01;3.25;;;3.05;;
34098;SDS011;20374;49.474;10.944;2023-05-07T02:53:29;3.80;;;3.60;;
34098;SDS011;20374;49.474;10.944;2023-05-07T02:55:55;3.10;;;2.90;;
34098;SDS011;20374;49.474;10.944;2023-05-07T02:58:23;3.53;;;3.33;;
34098;SDS011;20374;49.474;10.944;2023-05-07T03:00:49;3.83;;;3.63;;
34098;SDS011;20374;49.474;10.944;2023-05-07T03:03:41;4.30;;;3.90;;
34098;SDS011;20374;49.474;10.944;2023-05-07T03:06:07;3.88;;;3.67;;
34098;SDS011;20374;49.474;10.944;2023-05-07T03:08:33;3.40;;;3.20;;
34098;SDS011;20374;49.474;10.944;2023-05-07T03:10:59;4.00;;;3.80;;
34098;SDS011;20374;49.474;10.944;2023-05-07T03:13:25;3.90;;;3.60;;
34098;SDS011;20374;49.474;10.944;2023-05-07T03:15:51;3.55;;;3.35;;
34098;SDS011;20374;49.474;10.944;2023-05-07T03:18:17;3.70;;;3.50;;
34098;SDS011;20374;49.474;10.944;2023-05-07T03:20:43;3.60;;;3.40;;
34098;SDS011;20374;49.474;10.944;2023-05-07T03:23:09;2.88;;;2.67;;
34098;SDS011;20374;49.474;10.944;2023-05-07T03:25:35;4.05;;;3.85;;
34098;SDS011;20374;49.474;10.944;2023-05-07T03:28:01;3.15;;;2.95;;
34098;SDS011;20374;49.474;10.944;2023-05-07T03:30:36;3.80;;;3.60;;
34098;SDS011;20374;49.474;10.944;2023-05-07T03:33:02;3.70;;;3.50;;
34098;SDS011;20374;49.474;10.944;2023-05-07T03:35:28;3.80;;;3.60;;
34098;SDS011;20374;49.474;10.944;2023-05-07T03:37:54;3.45;;;3.25;;
34098;SDS011;20374;49.474;10.944;2023-05-07T03:40:21;4.03;;;3.83;;
34098;SDS011;20374;49.474;10.944;2023-05-07T03:42:51;3.28;;;3.08;;
34098;SDS011;20374;49.474;10.944;2023-05-07T03:45:20;3.30;;;3.10;;
34098;SDS011;20374;49.474;10.944;2023-05-07T03:47:55;3.90;;;3.70;;
34098;SDS011;20374;49.474;10.944;2023-05-07T03:50:21;3.50;;;3.30;;
34098;SDS011;20374;49.474;10.944;2023-05-07T03:52:48;3.25;;;3.05;;
34098;SDS011;20374;49.474;10.944;2023-05-07T03:55:16;3.45;;;3.25;;
34098;SDS011;20374;49.474;10.944;2023-05-07T03:57:47;3.83;;;3.63;;
34098;SDS011;20374;49.474;10.944;2023-05-07T04:00:13;3.70;;;3.50;;
34098;SDS011;20374;49.474;10.944;2023-05-07T04:02:45;3.47;;;3.27;;
34098;SDS011;20374;49.474;10.944;2023-05-07T04:05:13;3.60;;;3.40;;
34098;SDS011;20374;49.474;10.944;2023-05-07T04:07:41;3.70;;;3.50;;
34098;SDS011;20374;49.474;10.944;2023-05-07T04:10:09;3.47;;;3.28;;
34098;SDS011;20374;49.474;10.944;2023-05-07T04:12:37;3.20;;;3.00;;
34098;SDS011;20374;49.474;10.944;2023-05-07T04:15:06;4.00;;;3.80;;
34098;SDS011;20374;49.474;10.944;2023-05-07T04:17:32;3.50;;;3.30;;
34098;SDS011;20374;49.474;10.944;2023-05-07T04:19:59;3.75;;;3.55;;
34098;SDS011;20374;49.474;10.944;2023-05-07T04:22:25;4.03;;;3.83;;
34098;SDS011;20374;49.474;10.944;2023-05-07T04:24:52;3.80;;;3.60;;
34098;SDS011;20374;49.474;10.944;2023-05-07T04:27:18;3.67;;;3.47;;
34098;SDS011;20374;49.474;10.944;2023-05-07T04:29:45;3.35;;;3.15;;
34098;SDS011;20374;49.474;10.944;2023-05-07T04:32:13;3.58;;;3.38;;
34098;SDS011;20374;49.474;10.944;2023-05-07T04:34:40;3.63;;;3.42;;
34098;SDS011;20374;49.474;10.944;2023-05-07T04:37:06;3.85;;;3.65;;
34098;SDS011;20374;49.474;10.944;2023-05-07T04:39:32;3.53;;;3.33;;
34098;SDS011;20374;49.474;10.944;2023-05-07T04:42:01;3.72;;;3.53;;
34098;SDS011;20374;49.474;10.944;2023-05-07T04:44:28;3.78;;;3.58;;
34098;SDS011;20374;49.474;10.944;2023-05-07T04:46:56;3.75;;;3.55;;
34098;SDS011;20374;49.474;10.944;2023-05-07T04:49:23;4.13;;;3.92;;
34098;SDS011;20374;49.474;10.944;2023-05-07T04:51:50;3.77;;;3.57;;
34098;SDS011;20374;49.474;10.944;2023-05-07T04:54:19;4.38;;;4.07;;
34098;SDS011;20374;49.474;10.944;2023-05-07T04:56:45;4.18;;;3.90;;
34098;SDS011;20374;49.474;10.944;2023-05-07T04:59:11;3.90;;;3.70;;
34098;SDS011;20374;49.474;10.944;2023-05-07T05:01:37;3.72;;;3.53;;
34098;SDS011;20374;49.474;10.944;2023-05-07T05:04:03;3.15;;;2.95;;
34098;SDS011;20374;49.474;10.944;2023-05-07T05:06:30;3.92;;;3.72;;
34098;SDS011;20374;49.474;10.944;2023-05-07T05:08:56;3.42;;;3.22;;
34098;SDS011;20374;49.474;10.944;2023-05-07T05:11:24;4.00;;;3.70;;
34098;SDS011;20374;49.474;10.944;2023-05-07T05:13:51;3.95;;;3.75;;
34098;SDS011;20374;49.474;10.944;2023-05-07T05:16:19;3.40;;;3.20;;
34098;SDS011;20374;49.474;10.944;2023-05-07T05:18:46;3.80;;;3.60;;
34098;SDS011;20374;49.474;10.944;2023-05-07T05:21:15;3.90;;;3.70;;
34098;SDS011;20374;49.474;10.944;2023-05-07T05:23:42;3.57;;;3.37;;
34098;SDS011;20374;49.474;10.944;2023-05-07T05:26:08;3.75;;;3.55;;
34098;SDS011;20374;49.474;10.944;2023-05-07T05:28:35;4.22;;;4.03;;
34098;SDS011;20374;49.474;10.944;2023-05-07T05:31:02;4.00;;;3.80;;
34098;SDS011;20374;49.474;10.944;2023-05-07T05:33:31;4.00;;;3.80;;
34098;SDS011;20374;49.474;10.944;2023-05-07T05:36:01;4.20;;;4.00;;
34098;SDS011;20374;49.474;10.944;2023-05-07T05:38:28;4.40;;;4.20;;
34098;SDS011;20374;49.474;10.944;2023-05-07T05:40:54;3.88;;;3.67;;
34098;SDS011;20374;49.474;10.944;2023-05-07T05:43:20;4.10;;;3.90;;
34098;SDS011;20374;49.474;10.944;2023-05-07T05:45:46;4.05;;;3.85;;
34098;SDS011;20374;49.474;10.944;2023-05-07T05:48:12;4.13;;;3.93;;
34098;SDS011;20374;49.474;10.944;2023-05-07T05:50:39;3.42;;;3.22;;
34098;SDS011;20374;49.474;10.944;2023-05-07T05:53:07;4.20;;;4.00;;
34098;SDS011;20374;49.474;10.944;2023-05-07T05:55:33;3.58;;;3.38;;
34098;SDS011;20374;49.474;10.944;2023-05-07T05:58:00;3.90;;;3.70;;
34098;SDS011;20374;49.474;10.944;2023-05-07T06:00:28;4.40;;;4.10;;
34098;SDS011;20374;49.474;10.944;2023-05-07T06:02:59;4.53;;;4.22;;
34098;SDS011;20374;49.474;10.944;2023-05-07T06:05:26;3.95;;;3.75;;
34098;SDS011;20374;49.474;10.944;2023-05-07T06:07:54;3.85;;;3.65;;
34098;SDS011;20374;49.474;10.944;2023-05-07T06:10:21;4.27;;;4.07;;
34098;SDS011;20374;49.474;10.944;2023-05-07T06:12:46;4.38;;;4.07;;
34098;SDS011;20374;49.474;10.944;2023-05-07T06:15:14;3.88;;;3.67;;
34098;SDS011;20374;49.474;10.944;2023-05-07T06:17:41;3.85;;;3.65;;
34098;SDS011;20374;49.474;10.944;2023-05-07T06:20:09;3.58;;;3.38;;
34098;SDS011;20374;49.474;10.944;2023-05-07T06:22:35;4.57;;;4.37;;
34098;SDS011;20374;49.474;10.944;2023-05-07T06:25:02;4.18;;;3.97;;
34098;SDS011;20374;49.474;10.944;2023-05-07T06:27:28;4.40;;;4.20;;
34098;SDS011;20374;49.474;10.944;2023-05-07T06:29:55;4.05;;;3.85;;
34098;SDS011;20374;49.474;10.944;2023-05-07T06:32:21;4.10;;;3.90;;
34098;SDS011;20374;49.474;10.944;2023-05-07T06:34:48;4.30;;;4.00;;
34098;SDS011;20374;49.474;10.944;2023-05-07T06:37:14;3.88;;;3.67;;
34098;SDS011;20374;49.474;10.944;2023-05-07T06:40:00;4.15;;;3.95;;
34098;SDS011;20374;49.474;10.944;2023-05-07T06:42:27;3.70;;;3.50;;
34098;SDS011;20374;49.474;10.944;2023-05-07T06:44:57;4.07;;;3.87;;
34098;SDS011;20374;49.474;10.944;2023-05-07T06:47:24;4.45;;;4.25;;
34098;SDS011;20374;49.474;10.944;2023-05-07T06:49:53;4.00;;;3.80;;
34098;SDS011;20374;49.474;10.944;2023-05-07T06:52:21;4.18;;;3.97;;
34098;SDS011;20374;49.474;10.944;2023-05-07T06:54:49;3.53;;;3.33;;
34098;SDS011;20374;49.474;10.944;2023-05-07T06:57:17;5.00;;;4.70;;
34098;SDS011;20374;49.474;10.944;2023-05-07T06:59:43;3.58;;;3.38;;
34098;SDS011;20374;49.474;10.944;2023-05-07T07:02:09;4.90;;;4.60;;
34098;SDS011;20374;49.474;10.944;2023-05-07T07:04:35;4.10;;;3.90;;
34098;SDS011;20374;49.474;10.944;2023-05-07T07:07:05;4.60;;;4.40;;
34098;SDS011;20374;49.474;10.944;2023-05-07T07:09:31;4.32;;;4.13;;
34098;SDS011;20374;49.474;10.944;2023-05-07T07:11:59;4.70;;;4.43;;
34098;SDS011;20374;49.474;10.944;2023-05-07T07:14:25;4.28;;;4.07;;
34098;SDS011;20374;49.474;10.944;2023-05-07T07:16:52;4.80;;;4.60;;
34098;SDS011;20374;49.474;10.944;2023-05-07T07:19:19;4.67;;;4.40;;
34098;SDS011;20374;49.474;10.944;2023-05-07T07:21:47;5.72;;;5.43;;
34098;SDS011;20374;49.474;10.944;2023-05-07T07:24:14;5.85;;;5.55;;
34098;SDS011;20374;49.474;10.944;2023-05-07T07:26:49;5.90;;;5.60;;
34098;SDS011;20374;49.474;10.944;2023-05-07T07:29:16;6.70;;;6.30;;
34098;SDS011;20374;49.474;10.944;2023-05-07T07:31:44;4.32;;;4.13;;
34098;SDS011;20374;49.474;10.944;2023-05-07T07:34:10;4.82;;;4.55;;
34098;SDS011;20374;49.474;10.944;2023-05-07T07:36:36;4.60;;;4.40;;
34098;SDS011;20374;49.474;10.944;2023-05-07T07:39:02;5.45;;;5.15;;
34098;SDS011;20374;49.474;10.944;2023-05-07T07:41:29;3.58;;;3.38;;
34098;SDS011;20374;49.474;10.944;2023-05-07T07:43:55;5.30;;;5.00;;
34098;SDS011;20374;49.474;10.944;2023-05-07T07:46:21;4.95;;;4.70;;
34098;SDS011;20374;49.474;10.944;2023-05-07T07:48:47;4.20;;;4.00;;
34098;SDS011;20374;49.474;10.944;2023-05-07T07:51:13;4.55;;;4.35;;
34098;SDS011;20374;49.474;10.944;2023-05-07T07:53:39;5.18;;;4.88;;
34098;SDS011;20374;49.474;10.944;2023-05-07T07:56:06;5.40;;;5.10;;
34098;SDS011;20374;49.474;10.944;2023-05-07T07:58:33;5.05;;;4.75;;
34098;SDS011;20374;49.474;10.944;2023-05-07T08:01:01;4.70;;;4.50;;
34098;SDS011;20374;49.474;10.944;2023-05-07T08:03:27;5.30;;;5.00;;
34098;SDS011;20374;49.474;10.944;2023-05-07T08:05:57;5.32;;;5.03;;
34098;SDS011;20374;49.474;10.944;2023-05-07T08:08:23;5.45;;;5.15;;
34098;SDS011;20374;49.474;10.944;2023-05-07T08:10:53;5.22;;;4.93;;
34098;SDS011;20374;49.474;10.944;2023-05-07T08:13:27;5.23;;;4.93;;
34098;SDS011;20374;49.474;10.944;2023-05-07T08:15:53;5.25;;;4.95;;
34098;SDS011;20374;49.474;10.944;2023-05-07T08:18:19;5.40;;;5.10;;
34098;SDS011;20374;49.474;10.944;2023-05-07T08:20:45;5.15;;;4.85;;
34098;SDS011;20374;49.474;10.944;2023-05-07T08:23:16;4.13;;;3.93;;
34098;SDS011;20374;49.474;10.944;2023-05-07T08:25:43;3.58;;;3.38;;
34098;SDS011;20374;49.474;10.944;2023-05-07T08:28:10;4.95;;;4.68;;
34098;SDS011;20374;49.474;10.944;2023-05-07T08:30:37;5.40;;;5.10;;
34098;SDS011;20374;49.474;10.944;2023-05-07T08:33:03;4.05;;;3.85;;
34098;SDS011;20374;49.474;10.944;2023-05-07T08:35:29;4.47;;;4.27;;
34098;SDS011;20374;49.474;10.944;2023-05-07T08:37:55;5.00;;;4.70;;
34098;SDS011;20374;49.474;10.944;2023-05-07T08:40:25;5.57;;;5.28;;
34098;SDS011;20374;49.474;10.944;2023-05-07T08:42:56;4.45;;;4.25;;
34098;SDS011;20374;49.474;10.944;2023-05-07T08:45:23;5.38;;;5.07;;
34098;SDS011;20374;49.474;10.944;2023-05-07T08:47:52;5.27;;;4.97;;
34098;SDS011;20374;49.474;10.944;2023-05-07T08:50:32;4.93;;;4.68;;
34098;SDS011;20374;49.474;10.944;2023-05-07T08:53:04;5.80;;;5.50;;
34098;SDS011;20374;49.474;10.944;2023-05-07T08:55:30;4.88;;;4.57;;
34098;SDS011;20374;49.474;10.944;2023-05-07T08:57:58;5.85;;;5.55;;
34098;SDS011;20374;49.474;10.944;2023-05-07T09:00:25;7.50;;;7.20;;
34098;SDS011;20374;49.474;10.944;2023-05-07T09:02:53;8.88;;;8.48;;
34098;SDS011;20374;49.474;10.944;2023-05-07T09:05:19;7.50;;;7.20;;
34098;SDS011;20374;49.474;10.944;2023-05-07T09:07:46;8.82;;;8.43;;
34098;SDS011;20374;49.474;10.944;2023-05-07T09:10:13;9.02;;;8.63;;
34098;SDS011;20374;49.474;10.944;2023-05-07T09:12:41;7.43;;;7.13;;
34098;SDS011;20374;49.474;10.944;2023-05-07T09:15:09;8.40;;;8.00;;
34098;SDS011;20374;49.474;10.944;2023-05-07T09:17:35;9.50;;;9.10;;
34098;SDS011;20374;49.474;10.944;2023-05-07T09:20:02;8.43;;;8.02;;
34098;SDS011;20374;49.474;10.944;2023-05-07T09:22:34;6.57;;;6.27;;
34098;SDS011;20374;49.474;10.944;2023-05-07T09:25:06;5.13;;;4.82;;
34098;SDS011;20374;49.474;10.944;2023-05-07T09:27:33;6.88;;;6.57;;
34098;SDS011;20374;49.474;10.944;2023-05-07T09:29:59;6.25;;;5.95;;
34098;SDS011;20374;49.474;10.944;2023-05-07T09:32:28;5.43;;;5.13;;
34098;SDS011;20374;49.474;10.944;2023-05-07T09:34:56;5.77;;;5.47;;
34098;SDS011;20374;49.474;10.944;2023-05-07T09:37:25;6.80;;;6.50;;
34098;SDS011;20374;49.474;10.944;2023-05-07T09:39:51;6.32;;;6.03;;
34098;SDS011;20374;49.474;10.944;2023-05-07T09:42:24;6.72;;;6.43;;
34098;SDS011;20374;49.474;10.944;2023-05-07T09:44:52;6.72;;;6.43;;
34098;SDS011;20374;49.474;10.944;2023-05-07T09:47:23;7.07;;;6.77;;
34098;SDS011;20374;49.474;10.944;2023-05-07T09:49:54;5.70;;;5.40;;
34098;SDS011;20374;49.474;10.944;2023-05-07T09:52:23;6.50;;;6.20;;
34098;SDS011;20374;49.474;10.944;2023-05-07T09:54:53;7.18;;;6.88;;
34098;SDS011;20374;49.474;10.944;2023-05-07T09:57:23;6.10;;;5.80;;
34098;SDS011;20374;49.474;10.944;2023-05-07T09:59:56;6.30;;;6.00;;
34098;SDS011;20374;49.474;10.944;2023-05-07T10:02:24;6.28;;;5.97;;
34098;SDS011;20374;49.474;10.944;2023-05-07T10:04:54;6.63;;;6.30;;
34098;SDS011;20374;49.474;10.944;2023-05-07T10:07:26;6.97;;;6.65;;
34098;SDS011;20374;49.474;10.944;2023-05-07T10:09:56;7.45;;;7.10;;
34098;SDS011;20374;49.474;10.944;2023-05-07T10:12:32;7.47;;;7.07;;
34098;SDS011;20374;49.474;10.944;2023-05-07T10:15:06;5.50;;;5.20;;
34098;SDS011;20374;49.474;10.944;2023-05-07T10:17:35;6.88;;;6.57;;
34098;SDS011;20374;49.474;10.944;2023-05-07T10:20:02;7.25;;;6.95;;
34098;SDS011;20374;49.474;10.944;2023-05-07T10:22:31;4.85;;;4.55;;
34098;SDS011;20374;49.474;10.944;2023-05-07T10:25:03;5.77;;;5.47;;
34098;SDS011;20374;49.474;10.944;2023-05-07T10:27:38;5.20;;;4.90;;
34098;SDS011;20374;49.474;10.944;2023-05-07T10:30:12;4.28;;;4.07;;
34098;SDS011;20374;49.474;10.944;2023-05-07T10:32:49;6.95;;;6.65;;
34098;SDS011;20374;49.474;10.944;2023-05-07T10:35:26;6.03;;;5.68;;
34098;SDS011;20374;49.474;10.944;2023-05-07T10:37:58;5.63;;;5.33;;
34098;SDS011;20374;49.474;10.944;2023-05-07T10:40:27;7.43;;;7.03;;
34098;SDS011;20374;49.474;10.944;2023-05-07T10:43:01;5.55;;;5.25;;
34098;SDS011;20374;49.474;10.944;2023-05-07T10:45:35;5.65;;;5.35;;
34098;SDS011;20374;49.474;10.944;2023-05-07T10:50:46;4.97;;;4.67;;
34098;SDS011;20374;49.474;10.944;2023-05-07T10:58:49;5.38;;;5.07;;
34098;SDS011;20374;49.474;10.944;2023-05-07T11:01:49;4.80;;;4.55;;
34098;SDS011;20374;49.474;10.944;2023-05-07T11:04:16;5.67;;;5.37;;
34098;SDS011;20374;49.474;10.944;2023-05-07T11:15:14;5.10;;;4.80;;
34098;SDS011;20374;49.474;10.944;2023-05-07T11:17:59;5.53;;;5.23;;
34098;SDS011;20374;49.474;10.944;2023-05-07T11:26:10;6.85;;;6.55;;
34098;SDS011;20374;49.474;10.944;2023-05-07T11:28:38;5.32;;;5.03;;
34098;SDS011;20374;49.474;10.944;2023-05-07T11:31:05;6.03;;;5.73;;
34098;SDS011;20374;49.474;10.944;2023-05-07T11:33:31;3.95;;;3.75;;
34098;SDS011;20374;49.474;10.944;2023-05-07T11:36:01;5.55;;;5.25;;
34098;SDS011;20374;49.474;10.944;2023-05-07T11:38:37;7.22;;;6.93;;
34098;SDS011;20374;49.474;10.944;2023-05-07T11:41:03;5.55;;;5.25;;
34098;SDS011;20374;49.474;10.944;2023-05-07T11:43:33;7.10;;;6.80;;
34098;SDS011;20374;49.474;10.944;2023-05-07T11:46:06;5.55;;;5.25;;
34098;SDS011;20374;49.474;10.944;2023-05-07T11:48:35;5.45;;;5.15;;
34098;SDS011;20374;49.474;10.944;2023-05-07T11:51:02;4.57;;;4.38;;
34098;SDS011;20374;49.474;10.944;2023-05-07T11:53:36;6.70;;;6.40;;
34098;SDS011;20374;49.474;10.944;2023-05-07T11:56:07;6.63;;;6.23;;
34098;SDS011;20374;49.474;10.944;2023-05-07T11:58:33;5.22;;;4.93;;
34098;SDS011;20374;49.474;10.944;2023-05-07T12:00:59;6.47;;;6.15;;
34098;SDS011;20374;49.474;10.944;2023-05-07T12:03:25;5.65;;;5.35;;
34098;SDS011;20374;49.474;10.944;2023-05-07T12:05:51;6.57;;;6.28;;
34098;SDS011;20374;49.474;10.944;2023-05-07T12:08:17;4.95;;;4.68;;
34098;SDS011;20374;49.474;10.944;2023-05-07T12:10:45;4.80;;;4.55;;
34098;SDS011;20374;49.474;10.944;2023-05-07T12:15:45;5.80;;;5.50;;
34098;SDS011;20374;49.474;10.944;2023-05-07T12:18:12;6.20;;;5.40;;
34098;SDS011;20374;49.474;10.944;2023-05-07T12:20:38;5.57;;;5.28;;
34098;SDS011;20374;49.474;10.944;2023-05-07T12:23:05;5.28;;;4.97;;
34098;SDS011;20374;49.474;10.944;2023-05-07T12:25:34;5.53;;;5.22;;
34098;SDS011;20374;49.474;10.944;2023-05-07T12:28:01;6.53;;;6.23;;
34098;SDS011;20374;49.474;10.944;2023-05-07T12:30:30;4.65;;;4.43;;
34098;SDS011;20374;49.474;10.944;2023-05-07T12:32:57;7.50;;;7.20;;
34098;SDS011;20374;49.474;10.944;2023-05-07T12:35:27;6.97;;;6.68;;
34098;SDS011;20374;49.474;10.944;2023-05-07T12:37:58;7.00;;;6.70;;
34098;SDS011;20374;49.474;10.944;2023-05-07T12:40:34;5.97;;;5.67;;
34098;SDS011;20374;49.474;10.944;2023-05-07T12:43:05;5.55;;;5.25;;
34098;SDS011;20374;49.474;10.944;2023-05-07T12:45:31;7.40;;;7.10;;
34098;SDS011;20374;49.474;10.944;2023-05-07T12:48:01;5.93;;;5.63;;
34098;SDS011;20374;49.474;10.944;2023-05-07T12:50:30;5.53;;;5.22;;
34098;SDS011;20374;49.474;10.944;2023-05-07T12:52:58;6.90;;;6.57;;
34098;SDS011;20374;49.474;10.944;2023-05-07T12:55:24;6.30;;;6.00;;
34098;SDS011;20374;49.474;10.944;2023-05-07T12:57:51;6.32;;;6.03;;
34098;SDS011;20374;49.474;10.944;2023-05-07T13:00:39;6.50;;;6.20;;
34098;SDS011;20374;49.474;10.944;2023-05-07T13:03:04;6.28;;;5.97;;
34098;SDS011;20374;49.474;10.944;2023-05-07T13:05:31;4.50;;;4.30;;
34098;SDS011;20374;49.474;10.944;2023-05-07T13:07:57;5.15;;;4.85;;
34098;SDS011;20374;49.474;10.944;2023-05-07T13:10:23;5.88;;;5.57;;
34098;SDS011;20374;49.474;10.944;2023-05-07T13:12:50;6.18;;;5.78;;
34098;SDS011;20374;49.474;10.944;2023-05-07T13:15:16;5.95;;;5.65;;
34098;SDS011;20374;49.474;10.944;2023-05-07T13:17:42;6.33;;;6.03;;
34098;SDS011;20374;49.474;10.944;2023-05-07T13:20:11;5.85;;;5.55;;
34098;SDS011;20374;49.474;10.944;2023-05-07T13:22:40;5.35;;;5.05;;
34098;SDS011;20374;49.474;10.944;2023-05-07T13:25:06;5.07;;;4.78;;
34098;SDS011;20374;49.474;10.944;2023-05-07T13:27:33;4.73;;;4.53;;
34098;SDS011;20374;49.474;10.944;2023-05-07T13:30:02;4.43;;;4.22;;
34098;SDS011;20374;49.474;10.944;2023-05-07T13:32:29;5.18;;;4.88;;
34098;SDS011;20374;49.474;10.944;2023-05-07T13:34:56;5.60;;;5.30;;
34098;SDS011;20374;49.474;10.944;2023-05-07T13:37:21;3.53;;;3.33;;
34098;SDS011;20374;49.474;10.944;2023-05-07T13:39:47;3.97;;;3.78;;
34098;SDS011;20374;49.474;10.944;2023-05-07T13:42:13;5.05;;;4.75;;
34098;SDS011;20374;49.474;10.944;2023-05-07T13:44:39;4.38;;;4.18;;
34098;SDS011;20374;49.474;10.944;2023-05-07T13:47:05;5.10;;;4.80;;
34098;SDS011;20374;49.474;10.944;2023-05-07T13:49:31;5.60;;;5.30;;
34098;SDS011;20374;49.474;10.944;2023-05-07T13:51:57;5.57;;;5.28;;
34098;SDS011;20374;49.474;10.944;2023-05-07T13:54:23;4.67;;;4.47;;
34098;SDS011;20374;49.474;10.944;2023-05-07T13:56:49;4.57;;;4.38;;
34098;SDS011;20374;49.474;10.944;2023-05-07T13:59:16;5.57;;;5.28;;
34098;SDS011;20374;49.474;10.944;2023-05-07T14:01:42;4.25;;;4.05;;
34098;SDS011;20374;49.474;10.944;2023-05-07T14:04:07;4.75;;;4.53;;
34098;SDS011;20374;49.474;10.944;2023-05-07T14:06:33;4.85;;;4.60;;
34098;SDS011;20374;49.474;10.944;2023-05-07T14:08:59;5.80;;;5.50;;
34098;SDS011;20374;49.474;10.944;2023-05-07T14:11:25;4.23;;;4.03;;
34098;SDS011;20374;49.474;10.944;2023-05-07T14:13:51;5.13;;;4.82;;
34098;SDS011;20374;49.474;10.944;2023-05-07T14:16:17;3.50;;;3.30;;
34098;SDS011;20374;49.474;10.944;2023-05-07T14:18:43;4.10;;;3.90;;
34098;SDS011;20374;49.474;10.944;2023-05-07T14:21:09;5.13;;;4.82;;
34098;SDS011;20374;49.474;10.944;2023-05-07T14:23:35;6.10;;;5.80;;
34098;SDS011;20374;49.474;10.944;2023-05-07T14:26:01;3.95;;;3.75;;
34098;SDS011;20374;49.474;10.944;2023-05-07T14:28:27;5.35;;;5.05;;
34098;SDS011;20374;49.474;10.944;2023-05-07T14:30:52;4.32;;;4.13;;
34098;SDS011;20374;49.474;10.944;2023-05-07T14:33:18;4.05;;;3.85;;
34098;SDS011;20374;49.474;10.944;2023-05-07T14:35:44;5.20;;;4.90;;
34098;SDS011;20374;49.474;10.944;2023-05-07T14:38:14;5.25;;;4.95;;
34098;SDS011;20374;49.474;10.944;2023-05-07T14:40:40;5.67;;;5.37;;
34098;SDS011;20374;49.474;10.944;2023-05-07T14:43:06;4.63;;;4.43;;
34098;SDS011;20374;49.474;10.944;2023-05-07T14:45:32;4.25;;;4.05;;
34098;SDS011;20374;49.474;10.944;2023-05-07T14:47:58;4.28;;;4.07;;
34098;SDS011;20374;49.474;10.944;2023-05-07T14:50:24;3.67;;;3.47;;
34098;SDS011;20374;49.474;10.944;2023-05-07T14:52:50;5.32;;;5.03;;
34098;SDS011;20374;49.474;10.944;2023-05-07T14:55:16;4.60;;;4.30;;
34098;SDS011;20374;49.474;10.944;2023-05-07T14:57:42;5.18;;;4.88;;
34098;SDS011;20374;49.474;10.944;2023-05-07T15:00:08;4.40;;;4.20;;
34098;SDS011;20374;49.474;10.944;2023-05-07T15:02:38;4.68;;;4.47;;